createdAt,value
2018-05-29T00:01:08.623Z,17.23
2018-05-29T00:03:36.830Z,16.53
2018-05-29T00:06:05.099Z,16.90
2018-05-29T00:08:33.294Z,16.40
2018-05-29T00:11:01.487Z,16.10
2018-05-29T00:13:29.767Z,16.40
2018-05-29T00:15:57.955Z,16.07
2018-05-29T00:18:26.231Z,16.50
2018-05-29T00:20:54.415Z,16.53
2018-05-29T00:23:22.628Z,18.23
2018-05-29T00:25:50.898Z,17.20
2018-05-29T00:28:19.102Z,17.87
2018-05-29T00:30:47.379Z,17.13
2018-05-29T00:33:15.562Z,17.60
2018-05-29T00:35:43.755Z,17.57
2018-05-29T00:38:12.034Z,17.70
2018-05-29T00:40:40.235Z,16.87
2018-05-29T00:43:08.523Z,16.30
2018-05-29T00:45:36.807Z,16.80
2018-05-29T00:48:05.115Z,16.07
2018-05-29T00:50:33.386Z,16.63
2018-05-29T00:53:01.670Z,15.80
2018-05-29T00:55:38.916Z,15.57
2018-05-29T00:58:07.181Z,15.80
2018-05-29T01:00:35.443Z,16.20
2018-05-29T01:03:03.619Z,15.13
2018-05-29T01:05:31.827Z,14.90
2018-05-29T01:08:00.103Z,15.33
2018-05-29T01:10:28.409Z,16.07
2018-05-29T01:12:56.682Z,15.43
2018-05-29T01:15:24.970Z,16.00
2018-05-29T01:17:53.175Z,16.20
2018-05-29T01:20:21.457Z,15.80
2018-05-29T01:22:49.750Z,15.60
2018-05-29T01:25:18.025Z,14.40
2018-05-29T01:27:46.214Z,16.90
2018-05-29T01:30:14.415Z,14.80
2018-05-29T01:32:42.682Z,16.93
2018-05-29T01:35:10.888Z,16.13
2018-05-29T01:37:39.167Z,16.17
2018-05-29T01:40:07.350Z,18.73
2018-05-29T01:42:35.543Z,18.67
2018-05-29T01:45:03.850Z,18.67
2018-05-29T01:47:32.127Z,19.43
2018-05-29T01:50:00.969Z,17.17
2018-05-29T01:52:29.210Z,18.17
2018-05-29T01:54:57.506Z,18.40
2018-05-29T01:57:25.778Z,18.33
2018-05-29T01:59:54.003Z,16.13
2018-05-29T02:02:22.255Z,17.97
2018-05-29T02:04:50.444Z,17.60
2018-05-29T02:07:18.642Z,16.97
2018-05-29T02:09:46.914Z,16.13
2018-05-29T02:12:15.128Z,15.70
2018-05-29T02:14:43.395Z,14.80
2018-05-29T02:17:11.610Z,15.80
2018-05-29T02:19:39.882Z,16.20
2018-05-29T02:22:08.167Z,16.03
2018-05-29T02:24:36.490Z,15.60
2018-05-29T02:27:04.748Z,15.80
2018-05-29T02:29:33.036Z,16.03
2018-05-29T02:32:01.329Z,15.60
2018-05-29T02:34:29.606Z,16.90
2018-05-29T02:36:57.903Z,16.00
2018-05-29T02:39:26.183Z,14.47
2018-05-29T02:41:54.375Z,16.03
2018-05-29T02:44:22.678Z,15.13
2018-05-29T02:46:50.947Z,16.80
2018-05-29T02:49:19.142Z,14.60
2018-05-29T02:51:47.421Z,15.97
2018-05-29T02:54:15.615Z,16.80
2018-05-29T02:56:43.891Z,17.83
2018-05-29T02:59:12.079Z,15.53
2018-05-29T03:01:40.275Z,14.70
2018-05-29T03:04:08.567Z,15.40
2018-05-29T03:06:36.858Z,15.67
2018-05-29T03:09:06.723Z,16.53
2018-05-29T03:11:34.971Z,15.67
2018-05-29T03:14:03.282Z,16.37
2018-05-29T03:16:31.566Z,17.37
2018-05-29T03:18:59.835Z,17.50
2018-05-29T03:21:28.118Z,16.30
2018-05-29T03:23:56.298Z,17.40
2018-05-29T03:26:24.521Z,15.53
2018-05-29T03:28:52.785Z,15.80
2018-05-29T03:31:20.971Z,16.50
2018-05-29T03:33:49.254Z,16.20
2018-05-29T03:36:17.550Z,16.00
2018-05-29T03:38:45.834Z,16.10
2018-05-29T03:41:14.119Z,15.93
2018-05-29T03:43:42.312Z,17.90
2018-05-29T03:46:10.602Z,19.60
2018-05-29T03:48:38.874Z,18.40
2018-05-29T03:51:07.066Z,18.73
2018-05-29T03:53:35.270Z,18.23
2018-05-29T03:56:03.552Z,19.33
2018-05-29T03:58:31.854Z,18.63
2018-05-29T04:01:00.130Z,19.87
2018-05-29T04:03:28.411Z,18.37
2018-05-29T04:05:56.694Z,19.50
2018-05-29T04:08:24.906Z,19.60
2018-05-29T04:10:53.176Z,20.03
2018-05-29T04:13:21.363Z,18.97
2018-05-29T04:15:49.667Z,16.40
2018-05-29T04:18:17.934Z,17.27
2018-05-29T04:20:46.135Z,17.20
2018-05-29T04:23:14.446Z,18.20
2018-05-29T04:25:42.700Z,18.27
2018-05-29T04:28:10.894Z,17.80
2018-05-29T04:30:39.222Z,18.17
2018-05-29T04:33:07.471Z,18.90
2018-05-29T04:35:35.758Z,18.70
2018-05-29T04:38:03.956Z,18.10
2018-05-29T04:40:32.239Z,19.80
2018-05-29T04:43:00.523Z,19.13
2018-05-29T04:45:28.723Z,21.57
2018-05-29T04:47:57.003Z,22.87
2018-05-29T04:50:25.287Z,21.93
2018-05-29T04:52:53.586Z,21.50
2018-05-29T04:55:21.867Z,22.33
2018-05-29T04:57:50.147Z,24.60
2018-05-29T05:00:18.375Z,23.60
2018-05-29T05:02:46.639Z,23.20
2018-05-29T05:05:14.910Z,22.10
2018-05-29T05:07:43.118Z,21.53
2018-05-29T05:10:11.391Z,23.13
2018-05-29T05:12:39.575Z,22.93
2018-05-29T05:15:07.883Z,21.30
2018-05-29T05:17:36.151Z,21.60
2018-05-29T05:20:04.367Z,22.33
2018-05-29T05:22:32.643Z,19.97
2018-05-29T05:25:00.911Z,20.83
2018-05-29T05:27:29.106Z,21.03
2018-05-29T05:29:57.305Z,18.17
2018-05-29T05:32:25.579Z,19.73
2018-05-29T05:34:53.763Z,20.00
2018-05-29T05:37:21.963Z,19.60
2018-05-29T05:39:50.239Z,20.07
2018-05-29T05:42:18.435Z,19.17
2018-05-29T05:44:46.739Z,19.90
2018-05-29T05:47:15.015Z,20.43
2018-05-29T05:49:43.315Z,19.87
2018-05-29T05:52:11.641Z,18.60
2018-05-29T05:54:39.891Z,17.57
2018-05-29T05:57:08.179Z,18.77
2018-05-29T05:59:37.913Z,18.83
2018-05-29T06:02:06.175Z,19.70
2018-05-29T06:04:34.355Z,20.27
2018-05-29T06:07:02.553Z,18.30
2018-05-29T06:09:30.717Z,19.60
2018-05-29T06:11:58.890Z,20.50
2018-05-29T06:14:27.087Z,20.00
2018-05-29T06:16:55.267Z,18.47
2018-05-29T06:19:23.438Z,18.90
2018-05-29T06:21:51.632Z,18.90
2018-05-29T06:24:19.860Z,19.07
2018-05-29T06:26:47.991Z,18.87
2018-05-29T06:29:16.203Z,20.10
2018-05-29T06:31:44.384Z,20.37
2018-05-29T06:34:12.563Z,19.90
2018-05-29T06:36:40.759Z,19.80
2018-05-29T06:39:08.954Z,19.73
2018-05-29T06:41:37.174Z,20.03
2018-05-29T06:44:05.351Z,19.70
2018-05-29T06:46:33.582Z,19.27
2018-05-29T06:49:01.880Z,19.60
2018-05-29T06:51:30.123Z,20.13
2018-05-29T06:53:58.403Z,19.23
2018-05-29T06:56:26.578Z,18.53
2018-05-29T06:58:54.814Z,17.93
2018-05-29T07:01:23.063Z,17.17
2018-05-29T07:03:51.389Z,20.67
2018-05-29T07:06:19.546Z,22.43
2018-05-29T07:08:47.726Z,20.00
2018-05-29T07:11:15.963Z,21.87
2018-05-29T07:13:44.256Z,20.07
2018-05-29T07:16:12.430Z,22.63
2018-05-29T07:18:40.603Z,22.80
2018-05-29T07:21:08.907Z,20.10
2018-05-29T07:23:37.174Z,21.73
2018-05-29T07:26:05.359Z,19.97
2018-05-29T07:28:33.542Z,21.70
2018-05-29T07:31:01.719Z,21.80
2018-05-29T07:33:29.905Z,22.27
2018-05-29T07:35:58.107Z,19.93
2018-05-29T07:38:26.467Z,20.73
2018-05-29T07:40:54.911Z,19.30
2018-05-29T07:43:23.103Z,22.17
2018-05-29T07:45:51.555Z,19.73
2018-05-29T07:48:19.827Z,20.27
2018-05-29T07:50:48.115Z,16.70
2018-05-29T07:53:16.306Z,18.67
2018-05-29T07:55:44.488Z,19.43
2018-05-29T07:58:12.679Z,19.40
2018-05-29T08:00:40.896Z,20.50
2018-05-29T08:03:09.189Z,17.77
2018-05-29T08:05:37.464Z,18.80
2018-05-29T08:08:05.696Z,18.40
2018-05-29T08:10:33.999Z,18.93
2018-05-29T08:13:02.219Z,17.20
2018-05-29T08:15:30.442Z,17.77
2018-05-29T08:17:58.627Z,17.83
2018-05-29T08:20:26.859Z,16.57
2018-05-29T08:22:55.155Z,16.97
2018-05-29T08:25:23.371Z,17.70
2018-05-29T08:27:51.671Z,17.40
2018-05-29T08:30:19.919Z,15.13
2018-05-29T08:32:48.305Z,15.50
2018-05-29T08:35:16.510Z,16.10
2018-05-29T08:37:44.743Z,16.20
2018-05-29T08:40:12.944Z,15.17
2018-05-29T08:42:41.245Z,14.13
2018-05-29T08:45:09.631Z,15.77
2018-05-29T08:47:37.931Z,13.30
2018-05-29T08:50:06.127Z,14.43
2018-05-29T08:52:34.346Z,13.80
2018-05-29T08:55:02.542Z,13.60
2018-05-29T08:57:30.768Z,14.10
2018-05-29T08:59:58.962Z,13.57
2018-05-29T09:02:27.140Z,12.60
2018-05-29T09:04:55.406Z,13.33
2018-05-29T09:07:23.722Z,12.20
2018-05-29T09:09:51.915Z,13.53
2018-05-29T09:12:20.131Z,12.97
2018-05-29T09:14:48.399Z,12.03
2018-05-29T09:17:16.582Z,12.00
2018-05-29T09:19:44.783Z,11.67
2018-05-29T09:22:13.075Z,11.60
2018-05-29T09:24:41.247Z,11.90
2018-05-29T09:27:09.476Z,11.73
2018-05-29T09:29:37.753Z,11.67
2018-05-29T09:32:06.063Z,12.70
2018-05-29T09:34:34.322Z,12.60
2018-05-29T09:37:02.595Z,12.47
2018-05-29T09:39:30.775Z,12.43
2018-05-29T09:41:58.979Z,13.33
2018-05-29T09:44:27.256Z,12.60
2018-05-29T09:46:55.438Z,13.13
2018-05-29T09:49:23.645Z,12.93
2018-05-29T09:51:51.914Z,13.30
2018-05-29T09:54:20.106Z,12.00
2018-05-29T09:56:48.303Z,14.07
2018-05-29T09:59:16.584Z,12.50
2018-05-29T10:01:44.934Z,14.27
2018-05-29T10:04:13.214Z,14.33
2018-05-29T10:06:41.450Z,14.40
2018-05-29T10:09:10.663Z,15.63
2018-05-29T10:11:38.986Z,12.97
2018-05-29T10:14:07.163Z,14.40
2018-05-29T10:16:35.507Z,14.77
2018-05-29T10:19:03.906Z,15.30
2018-05-29T10:21:32.135Z,13.73
2018-05-29T10:24:00.367Z,14.80
2018-05-29T10:26:28.586Z,13.10
2018-05-29T10:28:57.183Z,14.20
2018-05-29T10:31:25.370Z,13.20
2018-05-29T10:33:53.683Z,14.40
2018-05-29T10:36:21.931Z,14.93
2018-05-29T10:38:50.139Z,14.10
2018-05-29T10:41:18.361Z,14.80
2018-05-29T10:43:46.573Z,14.67
2018-05-29T10:46:14.768Z,14.20
2018-05-29T10:48:42.999Z,12.80
2018-05-29T10:51:11.203Z,13.90
2018-05-29T10:53:39.442Z,14.10
2018-05-29T10:56:07.647Z,14.10
2018-05-29T10:58:35.837Z,13.50
2018-05-29T11:01:04.026Z,13.87
2018-05-29T11:03:32.226Z,14.03
2018-05-29T11:06:00.395Z,14.67
2018-05-29T11:08:28.575Z,15.23
2018-05-29T11:10:56.778Z,14.10
2018-05-29T11:13:24.971Z,14.43
2018-05-29T11:15:53.161Z,14.10
2018-05-29T11:18:21.351Z,14.60
2018-05-29T11:20:49.534Z,15.40
2018-05-29T11:23:17.730Z,14.00
2018-05-29T11:25:45.919Z,13.10
2018-05-29T11:28:14.115Z,13.93
2018-05-29T11:30:42.314Z,13.93
2018-05-29T11:33:10.570Z,12.77
2018-05-29T11:35:38.742Z,13.10
2018-05-29T11:38:06.915Z,14.30
2018-05-29T11:40:35.139Z,13.93
2018-05-29T11:43:03.382Z,12.10
2018-05-29T11:45:31.590Z,13.30
2018-05-29T11:47:59.767Z,12.20
2018-05-29T11:50:28.183Z,13.50
2018-05-29T11:52:56.415Z,14.20
2018-05-29T11:55:24.598Z,13.90
2018-05-29T11:57:52.803Z,12.50
2018-05-29T12:00:20.983Z,12.60
2018-05-29T12:02:49.199Z,13.50
2018-05-29T12:05:17.386Z,14.87
2018-05-29T12:07:45.656Z,15.03
2018-05-29T12:10:13.906Z,15.23
2018-05-29T12:12:42.307Z,14.10
2018-05-29T12:15:10.514Z,15.07
2018-05-29T12:17:38.714Z,13.90
2018-05-29T12:20:06.898Z,13.80
2018-05-29T12:22:35.088Z,13.67
2018-05-29T12:25:03.317Z,14.30
2018-05-29T12:27:31.534Z,13.40
2018-05-29T12:29:59.792Z,14.93
2018-05-29T12:32:28.031Z,13.90
2018-05-29T12:34:56.223Z,15.87
2018-05-29T12:37:24.432Z,14.73
2018-05-29T12:39:52.651Z,16.47
2018-05-29T12:42:20.846Z,15.00
2018-05-29T12:44:49.055Z,13.20
2018-05-29T12:47:17.376Z,13.73
2018-05-29T12:49:45.576Z,14.33
2018-05-29T12:52:13.797Z,13.13
2018-05-29T12:54:42.004Z,13.40
2018-05-29T12:57:10.219Z,12.53
2018-05-29T12:59:38.427Z,12.00
2018-05-29T13:02:06.642Z,12.20
2018-05-29T13:04:34.855Z,12.77
2018-05-29T13:07:03.083Z,12.97
2018-05-29T13:09:31.292Z,12.17
2018-05-29T13:11:59.483Z,11.60
2018-05-29T13:14:27.674Z,11.27
2018-05-29T13:16:55.871Z,13.13
2018-05-29T13:19:24.809Z,11.60
2018-05-29T13:21:53.056Z,11.80
2018-05-29T13:24:21.254Z,10.33
2018-05-29T13:26:49.443Z,11.17
2018-05-29T13:29:17.647Z,10.13
2018-05-29T13:31:45.849Z,9.67
2018-05-29T13:34:14.039Z,10.33
2018-05-29T13:36:42.259Z,9.70
2018-05-29T13:39:11.149Z,10.53
2018-05-29T13:41:39.298Z,9.80
2018-05-29T13:44:07.495Z,10.70
2018-05-29T13:46:35.683Z,9.53
2018-05-29T13:49:03.890Z,9.47
2018-05-29T13:51:32.070Z,9.70
2018-05-29T13:54:00.271Z,8.83
2018-05-29T13:56:28.457Z,9.30
2018-05-29T13:58:56.620Z,9.03
2018-05-29T14:01:24.834Z,9.33
2018-05-29T14:03:53.011Z,9.40
2018-05-29T14:06:21.191Z,8.80
2018-05-29T14:08:49.390Z,9.47
2018-05-29T14:11:17.707Z,8.30
2018-05-29T14:13:45.878Z,9.70
2018-05-29T14:16:14.223Z,9.47
2018-05-29T14:18:42.402Z,9.10
2018-05-29T14:21:10.590Z,9.43
2018-05-29T14:23:38.795Z,9.33
2018-05-29T14:26:07.064Z,8.73
2018-05-29T14:28:35.232Z,9.93
2018-05-29T14:31:03.451Z,8.93
2018-05-29T14:33:31.626Z,9.67
2018-05-29T14:35:59.799Z,9.40
2018-05-29T14:38:28.034Z,8.63
2018-05-29T14:40:56.192Z,10.00
2018-05-29T14:43:24.393Z,9.50
2018-05-29T14:45:52.590Z,8.77
2018-05-29T14:48:20.841Z,9.63
2018-05-29T14:50:48.983Z,11.43
2018-05-29T14:53:17.241Z,9.00
2018-05-29T14:55:45.411Z,9.40
2018-05-29T14:58:13.599Z,9.40
2018-05-29T15:00:41.792Z,9.47
2018-05-29T15:03:09.974Z,8.63
2018-05-29T15:05:38.254Z,8.70
2018-05-29T15:08:06.447Z,9.47
2018-05-29T15:10:34.639Z,9.97
2018-05-29T15:13:02.814Z,9.53
2018-05-29T15:15:30.995Z,8.63
2018-05-29T15:17:59.221Z,8.63
2018-05-29T15:20:27.398Z,8.83
2018-05-29T15:22:55.599Z,9.47
2018-05-29T15:25:23.806Z,10.00
2018-05-29T15:27:51.991Z,9.80
2018-05-29T15:30:20.185Z,8.73
2018-05-29T15:32:48.359Z,9.60
2018-05-29T15:35:16.550Z,9.37
2018-05-29T15:37:44.799Z,8.30
2018-05-29T15:40:12.979Z,9.23
2018-05-29T15:42:41.152Z,8.80
2018-05-29T15:45:09.343Z,9.53
2018-05-29T15:47:37.519Z,9.80
2018-05-29T15:50:05.699Z,9.40
2018-05-29T15:52:33.882Z,7.97
2018-05-29T15:55:02.067Z,9.10
2018-05-29T15:57:30.252Z,9.00
2018-05-29T15:59:58.492Z,8.83
2018-05-29T16:02:26.664Z,8.10
2018-05-29T16:04:54.847Z,8.20
2018-05-29T16:07:23.048Z,8.57
2018-05-29T16:09:51.240Z,8.33
2018-05-29T16:12:19.412Z,8.10
2018-05-29T16:14:47.635Z,8.27
2018-05-29T16:17:15.811Z,8.00
2018-05-29T16:19:44.322Z,6.70
2018-05-29T16:22:53.028Z,7.60
2018-05-29T16:25:21.267Z,7.83
2018-05-29T16:27:49.735Z,6.77
2018-05-29T16:30:17.955Z,6.90
2018-05-29T16:32:46.170Z,6.50
2018-05-29T16:35:14.462Z,7.53
2018-05-29T16:37:42.666Z,7.97
2018-05-29T16:40:10.847Z,7.63
2018-05-29T16:42:39.055Z,7.43
2018-05-29T16:45:07.258Z,7.90
2018-05-29T16:47:35.495Z,7.33
2018-05-29T16:50:03.803Z,8.30
2018-05-29T16:52:32.087Z,7.87
2018-05-29T16:55:00.362Z,8.03
2018-05-29T16:57:28.639Z,8.97
2018-05-29T16:59:56.943Z,9.50
2018-05-29T17:02:25.294Z,9.43
2018-05-29T17:04:53.711Z,8.10
2018-05-29T17:07:21.922Z,8.23
2018-05-29T17:09:50.198Z,7.30
2018-05-29T17:12:18.510Z,8.20
2018-05-29T17:14:46.784Z,8.80
2018-05-29T17:17:15.091Z,9.23
2018-05-29T17:19:43.381Z,8.13
2018-05-29T17:22:11.665Z,9.63
2018-05-29T17:24:39.928Z,9.20
2018-05-29T17:27:08.212Z,8.93
2018-05-29T17:29:36.693Z,9.50
2018-05-29T17:32:04.927Z,10.27
2018-05-29T17:34:33.195Z,8.60
2018-05-29T17:37:01.492Z,9.50
2018-05-29T17:39:29.760Z,9.03
2018-05-29T17:41:58.050Z,9.63
2018-05-29T17:44:26.360Z,8.77
2018-05-29T17:46:54.632Z,9.13
2018-05-29T17:49:22.915Z,8.93
2018-05-29T17:51:51.221Z,9.50
2018-05-29T17:54:19.502Z,9.73
2018-05-29T17:56:47.786Z,9.60
2018-05-29T17:59:16.090Z,9.97
2018-05-29T18:01:44.368Z,9.50
2018-05-29T18:04:12.650Z,9.83
2018-05-29T18:06:40.962Z,8.50
2018-05-29T18:09:09.231Z,10.33
2018-05-29T18:11:37.526Z,9.57
2018-05-29T18:14:05.868Z,9.90
2018-05-29T18:16:34.091Z,9.50
2018-05-29T18:19:02.388Z,11.60
2018-05-29T18:21:30.697Z,11.40
2018-05-29T18:23:58.963Z,10.57
2018-05-29T18:26:27.335Z,9.87
2018-05-29T18:28:55.558Z,10.60
2018-05-29T18:31:23.829Z,10.40
2018-05-29T18:33:52.114Z,10.53
2018-05-29T18:36:20.419Z,9.97
2018-05-29T18:38:48.738Z,10.30
2018-05-29T18:41:17.051Z,9.60
2018-05-29T18:43:45.290Z,10.50
2018-05-29T18:46:12.537Z,9.90
2018-05-29T18:48:40.842Z,9.67
2018-05-29T18:51:09.128Z,8.73
2018-05-29T18:53:37.394Z,10.83
2018-05-29T18:56:05.711Z,9.90
2018-05-29T18:58:34.002Z,12.03
2018-05-29T19:01:02.273Z,10.43
2018-05-29T19:03:30.619Z,11.00
2018-05-29T19:05:58.855Z,9.97
2018-05-29T19:08:27.139Z,10.50
2018-05-29T19:10:55.431Z,10.67
2018-05-29T19:13:23.730Z,9.60
2018-05-29T19:15:52.012Z,10.57
2018-05-29T19:18:20.326Z,9.90
2018-05-29T19:20:48.601Z,11.20
2018-05-29T19:23:16.866Z,11.23
2018-05-29T19:25:45.195Z,9.43
2018-05-29T19:28:13.474Z,11.13
2018-05-29T19:30:41.755Z,9.90
2018-05-29T19:33:10.035Z,10.10
2018-05-29T19:35:38.335Z,9.80
2018-05-29T19:38:06.619Z,11.20
2018-05-29T19:40:34.899Z,10.80
2018-05-29T19:43:03.295Z,10.43
2018-05-29T19:45:31.608Z,10.43
2018-05-29T19:47:59.882Z,10.93
2018-05-29T19:50:28.397Z,12.37
2018-05-29T19:52:56.634Z,12.90
2018-05-29T19:55:24.942Z,12.80
2018-05-29T19:57:53.234Z,12.27
2018-05-29T20:00:21.512Z,12.43
2018-05-29T20:02:49.799Z,11.40
2018-05-29T20:05:18.123Z,11.60
2018-05-29T20:07:46.371Z,12.00
2018-05-29T20:10:14.676Z,10.60
2018-05-29T20:12:42.966Z,12.80
2018-05-29T20:15:11.244Z,12.23
2018-05-29T20:17:39.554Z,11.50
2018-05-29T20:20:07.891Z,11.50
2018-05-29T20:22:36.118Z,11.40
2018-05-29T20:25:04.442Z,11.87
2018-05-29T20:27:32.711Z,12.00
2018-05-29T20:30:00.987Z,11.50
2018-05-29T20:33:32.252Z,12.20
2018-05-29T20:36:00.640Z,12.57
2018-05-29T20:38:28.927Z,12.87
2018-05-29T20:40:57.238Z,12.53
2018-05-29T20:43:25.506Z,12.57
2018-05-29T20:45:53.815Z,12.60
2018-05-29T20:48:22.095Z,14.47
2018-05-29T20:50:50.463Z,13.57
2018-05-29T20:53:19.584Z,13.53
2018-05-29T20:55:47.907Z,13.47
2018-05-29T20:58:16.160Z,12.30
2018-05-29T21:00:44.479Z,14.33
2018-05-29T21:03:12.747Z,13.23
2018-05-29T21:05:41.046Z,14.00
2018-05-29T21:08:09.327Z,13.60
2018-05-29T21:10:37.630Z,13.80
2018-05-29T21:13:05.892Z,16.70
2018-05-29T21:15:34.282Z,15.67
2018-05-29T21:18:02.492Z,17.93
2018-05-29T21:20:30.783Z,16.07
2018-05-29T21:22:59.055Z,17.60
2018-05-29T21:25:27.355Z,16.27
2018-05-29T21:27:55.651Z,15.30
2018-05-29T21:30:23.931Z,16.40
2018-05-29T21:32:52.243Z,16.23
2018-05-29T21:35:20.517Z,15.83
2018-05-29T21:37:48.790Z,17.27
2018-05-29T21:40:17.087Z,15.10
2018-05-29T21:42:45.480Z,17.00
2018-05-29T21:45:13.752Z,16.80
2018-05-29T21:47:42.055Z,16.40
2018-05-29T21:50:10.326Z,16.80
2018-05-29T21:52:38.614Z,17.13
2018-05-29T21:55:06.951Z,17.30
2018-05-29T21:57:35.219Z,16.73
2018-05-29T22:00:03.634Z,15.50
2018-05-29T22:02:31.790Z,15.70
2018-05-29T22:05:00.067Z,16.60
2018-05-29T22:07:28.367Z,15.40
2018-05-29T22:09:56.659Z,15.63
2018-05-29T22:12:24.932Z,16.57
2018-05-29T22:14:53.227Z,16.40
2018-05-29T22:17:21.536Z,19.07
2018-05-29T22:19:49.743Z,18.30
2018-05-29T22:22:18.015Z,18.17
2018-05-29T22:24:46.280Z,16.37
2018-05-29T22:27:14.577Z,17.73
2018-05-29T22:29:42.850Z,18.10
2018-05-29T22:32:11.147Z,18.10
2018-05-29T22:34:39.422Z,18.03
2018-05-29T22:37:08.707Z,17.23
2018-05-29T22:39:37.006Z,17.67
2018-05-29T22:42:05.242Z,18.20
2018-05-29T22:44:33.528Z,16.90
2018-05-29T22:47:01.811Z,17.27
2018-05-29T22:49:34.126Z,16.53
2018-05-29T22:52:02.691Z,18.23
2018-05-29T22:54:30.953Z,17.33
2018-05-29T22:56:59.258Z,16.60
2018-05-29T22:59:27.546Z,16.57
2018-05-29T23:01:55.846Z,17.23
2018-05-29T23:04:24.132Z,15.90
2018-05-29T23:06:52.431Z,16.53
2018-05-29T23:09:20.710Z,17.23
2018-05-29T23:11:48.984Z,17.87
2018-05-29T23:14:17.287Z,18.40
2018-05-29T23:16:45.556Z,21.90
2018-05-29T23:19:13.851Z,22.50
2018-05-29T23:21:42.159Z,23.60
2018-05-29T23:24:10.427Z,22.50
2018-05-29T23:26:38.728Z,27.53
2018-05-29T23:29:07.015Z,26.00
2018-05-29T23:31:35.288Z,24.87
2018-05-29T23:34:03.575Z,23.50
2018-05-29T23:36:31.884Z,23.23
2018-05-29T23:39:00.163Z,20.80
2018-05-29T23:41:28.451Z,20.93
2018-05-29T23:43:57.210Z,21.47
2018-05-29T23:46:25.430Z,22.50
2018-05-29T23:48:53.725Z,21.53
2018-05-29T23:51:22.035Z,24.10
2018-05-29T23:53:50.419Z,21.40
2018-05-29T23:56:18.731Z,23.57
2018-05-29T23:58:47.015Z,24.60
